Time;durP1;ratioP1;P1;durP2;ratioP2;P2;SDS_P1;SDS_P2;PMS_P1;PMS_P2;Temp;Humidity;BMP_temperature;BMP_pressure;BME280_temperature;BME280_humidity;BME280_pressure;Samples;Min_cycle;Max_cycle;Signal;HPM_P1;HPM_P2
2022/09/02 00:01:09;;;;;;;14.15;9.52;;;;;;;;;;4991148;28;20034;-63
2022/09/02 00:03:35;;;;;;;15.10;8.80;;;;;;;;;;4970980;28;20053;-65
2022/09/02 00:06:01;;;;;;;17.02;10.18;;;;;;;;;;4991842;28;20031;-65
2022/09/02 00:08:30;;;;;;;13.43;9.10;;;;;;;;;;4991383;28;20508;-63
2022/09/02 00:10:57;;;;;;;16.63;8.70;;;;;;;;;;4991196;28;20437;-62
2022/09/02 00:13:23;;;;;;;16.00;8.85;;;;;;;;;;4994772;28;20042;-63
2022/09/02 00:15:50;;;;;;;12.52;9.07;;;;;;;;;;4995733;28;20035;-63
2022/09/02 00:18:17;;;;;;;11.90;10.00;;;;;;;;;;4995560;28;20117;-64
2022/09/02 00:20:45;;;;;;;19.88;13.30;;;;;;;;;;4995701;28;20030;-62
2022/09/02 00:23:12;;;;;;;21.08;13.95;;;;;;;;;;4995330;28;20081;-64
2022/09/02 00:25:39;;;;;;;21.70;15.90;;;;;;;;;;4995487;28;20019;-63
2022/09/02 00:28:05;;;;;;;25.15;17.27;;;;;;;;;;4995271;28;20038;-64
2022/09/02 00:30:33;;;;;;;22.95;15.85;;;;;;;;;;4977990;28;21040;-66
2022/09/02 00:32:59;;;;;;;19.88;14.88;;;;;;;;;;4993284;28;20038;-62
2022/09/02 00:35:25;;;;;;;16.88;11.93;;;;;;;;;;4994725;28;20054;-62
2022/09/02 00:37:52;;;;;;;18.48;12.00;;;;;;;;;;4993970;28;20034;-66
2022/09/02 00:40:18;;;;;;;22.40;12.18;;;;;;;;;;4977696;28;20444;-63
2022/09/02 00:42:43;;;;;;;17.50;10.90;;;;;;;;;;4995492;28;20092;-62
2022/09/02 00:45:10;;;;;;;13.50;8.93;;;;;;;;;;4977761;28;20060;-62
2022/09/02 00:47:36;;;;;;;14.65;9.57;;;;;;;;;;4995055;28;20077;-62
2022/09/02 00:50:08;;;;;;;14.25;9.00;;;;;;;;;;4995765;28;20082;-62
2022/09/02 00:52:39;;;;;;;17.80;9.45;;;;;;;;;;4979254;28;20038;-63
2022/09/02 00:55:11;;;;;;;12.13;7.93;;;;;;;;;;4977751;28;20493;-63
2022/09/02 00:57:44;;;;;;;14.27;9.05;;;;;;;;;;4994900;28;20500;-65
2022/09/02 01:00:23;;;;;;;15.13;9.75;;;;;;;;;;4995436;28;20031;-63
2022/09/02 01:02:55;;;;;;;12.88;8.93;;;;;;;;;;4993715;28;20137;-65
2022/09/02 01:05:23;;;;;;;14.35;8.52;;;;;;;;;;4975626;28;20400;-61
2022/09/02 01:07:50;;;;;;;12.63;8.35;;;;;;;;;;4976669;28;20128;-62
2022/09/02 01:10:20;;;;;;;16.63;9.52;;;;;;;;;;4994085;28;20039;-67
2022/09/02 01:12:46;;;;;;;21.58;9.57;;;;;;;;;;4994251;28;20031;-62
2022/09/02 01:15:15;;;;;;;13.35;9.27;;;;;;;;;;4977152;28;20382;-64
2022/09/02 01:17:48;;;;;;;16.83;10.25;;;;;;;;;;4994432;28;20367;-62
2022/09/02 01:20:18;;;;;;;13.98;9.13;;;;;;;;;;4994524;28;20390;-66
2022/09/02 01:22:44;;;;;;;14.23;9.88;;;;;;;;;;4994535;28;20049;-66
2022/09/02 01:25:15;;;;;;;10.80;9.18;;;;;;;;;;4976170;28;20044;-63
2022/09/02 01:27:42;;;;;;;17.17;9.75;;;;;;;;;;4994295;28;20030;-64
2022/09/02 01:30:16;;;;;;;15.55;9.80;;;;;;;;;;4976635;28;20030;-64
2022/09/02 01:32:42;;;;;;;12.25;9.15;;;;;;;;;;4993975;28;20035;-62
2022/09/02 01:35:09;;;;;;;14.77;9.88;;;;;;;;;;4994047;28;20453;-62
2022/09/02 01:37:37;;;;;;;20.40;9.60;;;;;;;;;;4976627;28;20034;-65
2022/09/02 01:40:09;;;;;;;10.85;9.27;;;;;;;;;;4976453;28;20033;-64
2022/09/02 01:42:35;;;;;;;15.13;9.77;;;;;;;;;;4993471;28;20069;-66
2022/09/02 01:45:03;;;;;;;13.57;9.13;;;;;;;;;;4976106;28;20371;-63
2022/09/02 01:47:29;;;;;;;11.70;9.00;;;;;;;;;;4976292;28;20045;-63
2022/09/02 01:49:55;;;;;;;15.00;9.10;;;;;;;;;;4976223;28;20033;-62
2022/09/02 01:52:23;;;;;;;12.40;9.63;;;;;;;;;;4991964;28;20375;-63
2022/09/02 01:54:50;;;;;;;11.50;8.65;;;;;;;;;;4992064;28;20085;-62
2022/09/02 01:57:16;;;;;;;10.38;8.23;;;;;;;;;;4991407;28;20066;-63
2022/09/02 01:59:45;;;;;;;13.13;9.25;;;;;;;;;;4975876;28;20026;-63
2022/09/02 02:02:13;;;;;;;12.50;8.75;;;;;;;;;;4975891;28;20038;-63
2022/09/02 02:04:39;;;;;;;14.43;8.63;;;;;;;;;;4976052;28;20062;-63
2022/09/02 02:07:06;;;;;;;13.75;8.68;;;;;;;;;;4992867;28;20034;-62
2022/09/02 02:09:32;;;;;;;16.10;9.45;;;;;;;;;;4993443;28;20018;-63
2022/09/02 02:11:58;;;;;;;11.23;8.15;;;;;;;;;;4975352;28;20038;-63
2022/09/02 02:14:26;;;;;;;13.35;9.20;;;;;;;;;;4992165;28;20478;-64
2022/09/02 02:16:53;;;;;;;16.63;8.70;;;;;;;;;;4975351;28;20438;-63
2022/09/02 02:19:18;;;;;;;11.52;9.05;;;;;;;;;;4992907;28;20103;-62
2022/09/02 02:21:46;;;;;;;12.15;8.75;;;;;;;;;;4991176;28;20401;-63
2022/09/02 02:24:12;;;;;;;12.43;8.55;;;;;;;;;;4991950;28;20078;-62
2022/09/02 02:26:38;;;;;;;13.32;8.60;;;;;;;;;;4974716;28;20042;-63
2022/09/02 02:29:05;;;;;;;10.68;8.15;;;;;;;;;;4974702;28;20026;-64
2022/09/02 02:31:32;;;;;;;13.27;8.27;;;;;;;;;;4970754;28;20041;-63
2022/09/02 02:33:58;;;;;;;17.80;8.55;;;;;;;;;;4960386;28;20026;-63
2022/09/02 02:36:25;;;;;;;15.43;8.32;;;;;;;;;;4976122;28;20092;-65
2022/09/02 02:38:51;;;;;;;15.63;8.63;;;;;;;;;;4976337;28;20030;-64
2022/09/02 02:41:16;;;;;;;15.77;9.18;;;;;;;;;;4976613;28;20030;-64
2022/09/02 02:43:44;;;;;;;16.35;8.63;;;;;;;;;;4976227;28;20070;-65
2022/09/02 02:46:10;;;;;;;10.75;8.35;;;;;;;;;;4976361;28;20057;-64
2022/09/02 02:48:38;;;;;;;12.05;9.05;;;;;;;;;;4976037;28;20109;-63
2022/09/02 02:51:06;;;;;;;17.38;8.82;;;;;;;;;;4976263;28;20121;-62
2022/09/02 02:53:35;;;;;;;14.02;9.23;;;;;;;;;;4976302;28;20076;-63
2022/09/02 02:56:01;;;;;;;12.65;9.25;;;;;;;;;;4976287;28;20034;-64
2022/09/02 02:58:28;;;;;;;15.63;8.90;;;;;;;;;;4993818;28;20031;-63
2022/09/02 03:00:55;;;;;;;17.42;9.70;;;;;;;;;;4976090;28;20101;-63
2022/09/02 03:03:22;;;;;;;18.67;9.68;;;;;;;;;;4992163;28;20549;-64
2022/09/02 03:05:52;;;;;;;14.25;9.25;;;;;;;;;;4976126;28;20034;-64
2022/09/02 03:08:19;;;;;;;12.13;9.07;;;;;;;;;;4976125;28;20041;-66
2022/09/02 03:10:52;;;;;;;11.73;8.05;;;;;;;;;;4992391;28;20030;-67
2022/09/02 03:13:20;;;;;;;13.48;8.65;;;;;;;;;;4992257;28;20062;-65
2022/09/02 03:15:46;;;;;;;14.95;9.05;;;;;;;;;;4992606;28;20500;-63
2022/09/02 03:18:13;;;;;;;13.07;8.88;;;;;;;;;;4993487;28;20045;-65
2022/09/02 03:20:41;;;;;;;17.88;8.93;;;;;;;;;;4975887;28;20389;-66
2022/09/02 03:23:08;;;;;;;15.60;8.88;;;;;;;;;;4975661;28;20042;-63
2022/09/02 03:25:35;;;;;;;11.27;8.38;;;;;;;;;;4975615;28;20065;-63
2022/09/02 03:28:04;;;;;;;19.33;9.05;;;;;;;;;;4992075;28;20478;-63
2022/09/02 03:30:32;;;;;;;17.38;9.27;;;;;;;;;;4993874;28;20042;-66
2022/09/02 03:33:00;;;;;;;15.25;9.32;;;;;;;;;;4976120;28;20041;-67
2022/09/02 03:35:28;;;;;;;14.35;8.93;;;;;;;;;;4976207;28;20046;-64
2022/09/02 03:37:55;;;;;;;10.68;8.40;;;;;;;;;;4993110;28;20034;-63
2022/09/02 03:40:26;;;;;;;14.32;8.52;;;;;;;;;;4977435;28;20038;-62
2022/09/02 03:42:53;;;;;;;13.13;8.05;;;;;;;;;;4976852;28;20042;-62
2022/09/02 03:45:20;;;;;;;13.10;8.68;;;;;;;;;;4993769;28;20034;-63
2022/09/02 03:47:52;;;;;;;12.38;8.30;;;;;;;;;;4978946;28;20125;-63
2022/09/02 03:50:25;;;;;;;12.90;8.70;;;;;;;;;;4980861;28;20121;-63
2022/09/02 03:52:53;;;;;;;12.90;9.27;;;;;;;;;;4979086;28;20058;-62
2022/09/02 03:55:21;;;;;;;12.90;9.25;;;;;;;;;;4978958;28;20080;-62
2022/09/02 03:57:47;;;;;;;15.50;9.32;;;;;;;;;;4979583;28;20038;-63
2022/09/02 04:00:16;;;;;;;13.25;9.90;;;;;;;;;;4994018;28;20544;-63
2022/09/02 04:02:44;;;;;;;15.07;9.65;;;;;;;;;;4994949;28;20383;-63
2022/09/02 04:05:11;;;;;;;13.73;10.57;;;;;;;;;;4979389;28;20038;-64
2022/09/02 04:07:39;;;;;;;13.35;9.70;;;;;;;;;;4979121;28;20038;-64
2022/09/02 04:10:07;;;;;;;12.77;9.80;;;;;;;;;;4979393;28;20160;-62
2022/09/02 04:12:35;;;;;;;14.70;8.90;;;;;;;;;;4995757;28;20034;-63
2022/09/02 04:15:07;;;;;;;17.23;9.80;;;;;;;;;;4978758;28;20036;-63
2022/09/02 04:17:38;;;;;;;14.52;8.85;;;;;;;;;;4977833;28;20023;-66
2022/09/02 04:20:09;;;;;;;13.43;9.20;;;;;;;;;;4979062;28;20042;-63
2022/09/02 04:22:35;;;;;;;16.58;9.85;;;;;;;;;;4977726;28;20062;-64
2022/09/02 04:25:02;;;;;;;13.10;8.82;;;;;;;;;;4978208;28;20037;-65
2022/09/02 04:27:29;;;;;;;15.00;9.27;;;;;;;;;;4977963;28;20026;-64
2022/09/02 04:29:55;;;;;;;13.60;10.07;;;;;;;;;;4979012;28;20033;-66
2022/09/02 04:32:22;;;;;;;14.90;10.50;;;;;;;;;;4978114;28;20413;-67
2022/09/02 04:34:49;;;;;;;11.75;9.23;;;;;;;;;;4979141;28;20041;-68
2022/09/02 04:37:16;;;;;;;12.07;9.20;;;;;;;;;;4978706;28;20034;-70
2022/09/02 04:39:42;;;;;;;21.88;9.55;;;;;;;;;;4978894;28;20042;-68
2022/09/02 04:42:09;;;;;;;12.30;9.18;;;;;;;;;;4978216;28;20473;-67
2022/09/02 04:44:35;;;;;;;11.32;8.77;;;;;;;;;;4977416;28;20101;-67
2022/09/02 04:47:02;;;;;;;10.95;8.57;;;;;;;;;;4989049;28;20084;-66
2022/09/02 04:49:30;;;;;;;11.75;8.88;;;;;;;;;;4975937;28;20113;-68
2022/09/02 04:51:58;;;;;;;12.98;8.02;;;;;;;;;;4993956;28;20042;-69
2022/09/02 04:54:25;;;;;;;14.95;7.57;;;;;;;;;;4977862;28;20034;-69
2022/09/02 04:56:54;;;;;;;13.10;7.20;;;;;;;;;;4974554;28;20118;-67
2022/09/02 04:59:21;;;;;;;10.27;7.60;;;;;;;;;;4957213;28;20574;-67
2022/09/02 05:01:59;;;;;;;15.68;7.22;;;;;;;;;;4974452;28;20039;-66
2022/09/02 05:04:26;;;;;;;12.85;7.43;;;;;;;;;;4982769;28;20101;-66
2022/09/02 05:06:53;;;;;;;12.48;7.00;;;;;;;;;;4977780;28;20080;-67
2022/09/02 05:09:21;;;;;;;14.00;7.90;;;;;;;;;;4975902;28;20466;-67
2022/09/02 05:11:56;;;;;;;10.85;7.35;;;;;;;;;;4975486;28;20133;-67
2022/09/02 05:14:24;;;;;;;10.13;6.95;;;;;;;;;;4992110;28;20037;-70
2022/09/02 05:16:54;;;;;;;11.73;6.63;;;;;;;;;;4975964;28;20022;-69
2022/09/02 05:19:25;;;;;;;12.45;6.97;;;;;;;;;;4991856;28;20553;-69
2022/09/02 05:21:56;;;;;;;13.93;6.80;;;;;;;;;;4975534;28;20501;-69
2022/09/02 05:24:35;;;;;;;10.50;6.57;;;;;;;;;;4976872;28;20050;-69
2022/09/02 05:27:06;;;;;;;12.38;6.93;;;;;;;;;;4977688;28;20042;-69
2022/09/02 05:29:34;;;;;;;16.58;7.90;;;;;;;;;;4975979;28;20034;-70
2022/09/02 05:32:00;;;;;;;8.65;6.72;;;;;;;;;;4976853;28;20038;-72
2022/09/02 05:34:26;;;;;;;13.10;8.00;;;;;;;;;;4973754;28;20057;-72
2022/09/02 05:36:56;;;;;;;13.10;8.05;;;;;;;;;;4957781;28;20390;-68
2022/09/02 05:39:24;;;;;;;11.73;7.95;;;;;;;;;;4975598;28;20046;-68
2022/09/02 05:41:50;;;;;;;13.25;8.13;;;;;;;;;;4958233;28;20027;-71
2022/09/02 05:44:16;;;;;;;13.48;8.35;;;;;;;;;;4975267;28;20045;-72
2022/09/02 05:46:43;;;;;;;15.23;7.78;;;;;;;;;;4973633;28;20046;-71
2022/09/02 05:49:16;;;;;;;20.63;9.02;;;;;;;;;;4957745;28;20390;-70
2022/09/02 05:51:55;;;;;;;19.75;8.75;;;;;;;;;;4970146;28;20041;-67
2022/09/02 05:54:30;;;;;;;18.58;8.20;;;;;;;;;;4976967;28;20482;-68
2022/09/02 05:57:08;;;;;;;14.57;8.02;;;;;;;;;;4992785;28;20030;-68
2022/09/02 05:59:38;;;;;;;13.98;8.75;;;;;;;;;;4976308;28;20029;-68
2022/09/02 06:02:06;;;;;;;17.27;8.05;;;;;;;;;;4976592;28;20089;-67
2022/09/02 06:04:42;;;;;;;12.40;8.13;;;;;;;;;;4975928;28;20065;-66
2022/09/02 06:07:10;;;;;;;11.68;7.50;;;;;;;;;;4992779;28;20039;-67
2022/09/02 06:09:36;;;;;;;13.07;6.65;;;;;;;;;;4976201;28;20023;-67
2022/09/02 06:12:04;;;;;;;8.25;6.28;;;;;;;;;;4992723;28;20041;-66
2022/09/02 06:14:32;;;;;;;10.50;6.65;;;;;;;;;;4992753;28;20022;-66
2022/09/02 06:17:00;;;;;;;10.32;6.63;;;;;;;;;;4976552;28;20038;-66
2022/09/02 06:19:34;;;;;;;10.45;6.10;;;;;;;;;;4976432;28;20474;-65
2022/09/02 06:22:02;;;;;;;12.02;6.70;;;;;;;;;;4992435;28;20053;-67
2022/09/02 06:24:31;;;;;;;11.40;6.15;;;;;;;;;;4976366;28;20448;-65
2022/09/02 06:27:02;;;;;;;10.45;6.35;;;;;;;;;;4975750;28;20040;-66
2022/09/02 06:29:28;;;;;;;9.55;5.78;;;;;;;;;;5008316;28;20117;-66
2022/09/02 06:31:55;;;;;;;10.77;5.88;;;;;;;;;;5011501;28;20029;-67
2022/09/02 06:34:25;;;;;;;10.35;6.50;;;;;;;;;;4995194;28;20076;-64
2022/09/02 06:36:52;;;;;;;8.75;5.43;;;;;;;;;;4995047;28;20050;-67
2022/09/02 06:39:22;;;;;;;13.40;6.97;;;;;;;;;;4994787;28;20040;-65
2022/09/02 06:41:49;;;;;;;11.90;7.07;;;;;;;;;;4994693;28;20042;-65
2022/09/02 06:44:20;;;;;;;11.63;6.93;;;;;;;;;;5011060;28;20037;-65
2022/09/02 06:46:56;;;;;;;12.48;6.82;;;;;;;;;;5012917;28;20489;-65
2022/09/02 06:49:23;;;;;;;10.05;7.13;;;;;;;;;;5011009;28;20045;-66
2022/09/02 06:51:53;;;;;;;16.63;7.50;;;;;;;;;;4994800;28;20032;-66
2022/09/02 06:54:25;;;;;;;12.00;7.88;;;;;;;;;;4994882;28;20091;-67
2022/09/02 06:57:00;;;;;;;12.13;8.27;;;;;;;;;;4994756;28;20034;-67
2022/09/02 06:59:26;;;;;;;12.82;8.50;;;;;;;;;;5011334;28;20034;-66
2022/09/02 07:01:56;;;;;;;17.50;8.55;;;;;;;;;;5011044;28;20037;-67
2022/09/02 07:07:11;;;;;;;15.30;9.63;;;;;;;;;;4994987;28;20060;-67
2022/09/02 07:09:45;;;;;;;15.05;9.18;;;;;;;;;;4990778;28;20185;-66
2022/09/02 07:12:16;;;;;;;15.13;9.80;;;;;;;;;;4974894;28;20034;-66
2022/09/02 07:14:53;;;;;;;15.77;9.70;;;;;;;;;;4975317;28;20121;-68
2022/09/02 07:17:30;;;;;;;13.82;9.88;;;;;;;;;;4974673;28;20488;-68
2022/09/02 07:20:02;;;;;;;14.45;8.75;;;;;;;;;;4973718;28;20490;-68
2022/09/02 07:22:34;;;;;;;;;;;;;;;;;;4992229;28;20128;-67
2022/09/02 07:25:01;;;;;;;19.67;9.90;;;;;;;;;;4979360;28;19918;-67
2022/09/02 07:27:26;;;;;;;14.63;10.48;;;;;;;;;;4979753;28;20029;-67
2022/09/02 07:29:55;;;;;;;21.85;11.00;;;;;;;;;;4995081;28;20038;-68
2022/09/02 07:32:21;;;;;;;21.05;11.05;;;;;;;;;;4979477;28;20397;-67
2022/09/02 07:34:48;;;;;;;12.85;10.27;;;;;;;;;;4997026;28;20039;-67
2022/09/02 07:37:14;;;;;;;16.60;10.65;;;;;;;;;;4979675;28;20560;-66
2022/09/02 07:39:42;;;;;;;19.17;9.93;;;;;;;;;;4995819;28;20105;-67
2022/09/02 07:42:10;;;;;;;18.30;10.32;;;;;;;;;;4995738;28;20022;-69
2022/09/02 07:44:36;;;;;;;25.92;11.30;;;;;;;;;;4996796;28;20042;-68
2022/09/02 07:47:05;;;;;;;16.08;9.43;;;;;;;;;;4979244;28;20385;-68
2022/09/02 07:49:32;;;;;;;14.25;9.30;;;;;;;;;;4979191;28;20497;-68
2022/09/02 07:51:58;;;;;;;14.93;9.80;;;;;;;;;;4979255;28;20045;-69
2022/09/02 07:54:25;;;;;;;15.13;10.25;;;;;;;;;;4996708;28;20038;-69
2022/09/02 07:56:53;;;;;;;13.00;9.88;;;;;;;;;;4979118;28;20470;-68
2022/09/02 07:59:20;;;;;;;14.57;10.07;;;;;;;;;;4979222;28;20041;-67
2022/09/02 08:01:50;;;;;;;14.23;8.88;;;;;;;;;;4979419;28;20049;-69
2022/09/02 08:04:22;;;;;;;15.27;9.02;;;;;;;;;;4978830;28;20034;-68
2022/09/02 08:06:50;;;;;;;14.75;7.93;;;;;;;;;;4979753;28;20038;-66
2022/09/02 08:09:16;;;;;;;16.55;8.00;;;;;;;;;;4996717;28;20098;-67
2022/09/02 08:11:46;;;;;;;9.35;7.35;;;;;;;;;;4996128;28;20454;-67
2022/09/02 08:14:16;;;;;;;12.93;8.73;;;;;;;;;;4996051;28;20034;-67
2022/09/02 08:16:43;;;;;;;11.52;8.20;;;;;;;;;;4996464;28;20051;-67
2022/09/02 08:19:10;;;;;;;13.18;7.57;;;;;;;;;;4996543;28;20034;-67
2022/09/02 08:21:36;;;;;;;16.05;8.77;;;;;;;;;;4996387;28;20113;-68
2022/09/02 08:24:02;;;;;;;12.13;7.57;;;;;;;;;;4996049;28;20070;-67
2022/09/02 08:26:29;;;;;;;11.60;8.20;;;;;;;;;;4996013;28;20030;-67
2022/09/02 08:28:55;;;;;;;14.85;8.00;;;;;;;;;;4995898;28;20465;-67
2022/09/02 08:31:21;;;;;;;11.00;7.00;;;;;;;;;;4996029;28;20117;-67
2022/09/02 08:33:47;;;;;;;11.52;6.63;;;;;;;;;;4995684;28;20432;-67
2022/09/02 08:36:14;;;;;;;15.30;7.20;;;;;;;;;;4995599;28;20134;-67
2022/09/02 08:38:41;;;;;;;8.98;5.85;;;;;;;;;;4995821;28;20089;-67
2022/09/02 08:41:19;;;;;;;8.60;5.72;;;;;;;;;;4995803;28;20045;-67
2022/09/02 08:43:46;;;;;;;11.27;5.72;;;;;;;;;;4995548;28;20034;-67
2022/09/02 08:46:15;;;;;;;10.05;6.35;;;;;;;;;;4978322;28;20022;-69
2022/09/02 08:48:56;;;;;;;10.32;5.60;;;;;;;;;;4995868;28;20033;-67
2022/09/02 08:51:36;;;;;;;8.90;5.10;;;;;;;;;;4995536;28;20109;-71
2022/09/02 08:54:14;;;;;;;9.20;5.05;;;;;;;;;;4995475;28;20034;-67
2022/09/02 08:56:41;;;;;;;11.20;5.60;;;;;;;;;;4995616;28;20045;-67
2022/09/02 08:59:09;;;;;;;10.10;5.57;;;;;;;;;;4995737;28;20481;-67
2022/09/02 09:01:49;;;;;;;10.18;5.25;;;;;;;;;;4995441;28;20097;-67
2022/09/02 09:04:36;;;;;;;10.25;5.28;;;;;;;;;;4995252;28;20082;-66
2022/09/02 09:07:16;;;;;;;8.73;6.05;;;;;;;;;;4995455;28;20053;-67
2022/09/02 09:10:01;;;;;;;9.38;5.50;;;;;;;;;;4978078;28;20034;-67
2022/09/02 09:12:45;;;;;;;9.50;5.28;;;;;;;;;;4994146;28;20042;-66
2022/09/02 09:15:15;;;;;;;11.35;5.38;;;;;;;;;;4992649;28;20033;-67
2022/09/02 09:17:58;;;;;;;8.90;5.20;;;;;;;;;;5009337;28;20029;-67
2022/09/02 09:20:25;;;;;;;;;;;;;;;;;;5014826;28;20041;-67
2022/09/02 09:22:55;;;;;;;10.55;4.75;;;;;;;;;;5012890;28;19909;-66
2022/09/02 09:25:28;;;;;;;11.27;5.68;;;;;;;;;;5014135;28;20495;-66
2022/09/02 09:27:58;;;;;;;9.40;5.45;;;;;;;;;;5014113;28;20042;-66
2022/09/02 09:30:25;;;;;;;8.35;6.10;;;;;;;;;;5014390;28;20045;-68
2022/09/02 09:32:59;;;;;;;13.85;6.18;;;;;;;;;;5014165;28;20168;-67
2022/09/02 09:35:26;;;;;;;8.57;5.28;;;;;;;;;;4996060;28;20085;-66
2022/09/02 09:37:55;;;;;;;8.52;5.32;;;;;;;;;;5000092;28;20037;-67
2022/09/02 09:40:29;;;;;;;9.13;5.28;;;;;;;;;;4994323;28;20030;-69
2022/09/02 09:43:04;;;;;;;13.52;5.85;;;;;;;;;;4994514;28;20381;-67
2022/09/02 09:45:38;;;;;;;12.23;5.65;;;;;;;;;;4993475;28;20038;-68
2022/09/02 09:48:16;;;;;;;9.20;5.78;;;;;;;;;;4994335;28;20096;-68
2022/09/02 09:50:46;;;;;;;10.20;5.65;;;;;;;;;;4994239;28;20034;-69
2022/09/02 09:53:24;;;;;;;8.38;5.47;;;;;;;;;;4994576;28;20176;-68
2022/09/02 09:55:57;;;;;;;11.65;5.55;;;;;;;;;;4993718;28;20037;-70
2022/09/02 09:58:30;;;;;;;10.23;5.57;;;;;;;;;;4993693;28;20049;-68
2022/09/02 10:00:59;;;;;;;9.52;5.25;;;;;;;;;;5013255;28;20506;-68
2022/09/02 10:03:29;;;;;;;11.57;5.50;;;;;;;;;;5013239;28;20034;-68
2022/09/02 10:05:57;;;;;;;13.30;5.70;;;;;;;;;;5013341;28;20073;-68
2022/09/02 10:08:27;;;;;;;8.13;5.57;;;;;;;;;;5010535;28;20026;-69
2022/09/02 10:11:07;;;;;;;9.15;5.38;;;;;;;;;;4989729;28;20041;-70
2022/09/02 10:13:35;;;;;;;12.00;5.60;;;;;;;;;;4992872;28;20504;-67
2022/09/02 10:16:24;;;;;;;8.27;5.18;;;;;;;;;;4974393;28;20055;-68
2022/09/02 10:18:58;;;;;;;8.48;5.32;;;;;;;;;;4956501;28;20039;-68
2022/09/02 10:21:32;;;;;;;10.77;5.97;;;;;;;;;;4974380;28;20081;-68
2022/09/02 10:24:21;;;;;;;7.07;4.82;;;;;;;;;;4974025;28;20035;-69
2022/09/02 10:26:53;;;;;;;6.63;5.03;;;;;;;;;;4927477;28;20043;-68
2022/09/02 10:29:51;;;;;;;14.00;5.13;;;;;;;;;;4973836;28;20023;-68
2022/09/02 10:32:34;;;;;;;15.55;5.63;;;;;;;;;;4965788;28;20046;-69
2022/09/02 10:35:00;;;;;;;11.82;5.50;;;;;;;;;;4973594;28;20416;-69
2022/09/02 10:37:54;;;;;;;11.93;5.40;;;;;;;;;;4974264;28;20112;-66
2022/09/02 10:40:37;;;;;;;10.70;6.15;;;;;;;;;;4944535;28;20064;-68
2022/09/02 10:43:24;;;;;;;6.53;5.28;;;;;;;;;;4991529;28;20048;-68
2022/09/02 10:45:56;;;;;;;9.43;6.07;;;;;;;;;;4992237;28;20043;-69
2022/09/02 10:48:45;;;;;;;12.43;6.20;;;;;;;;;;4993611;28;20508;-68
2022/09/02 10:51:49;;;;;;;13.43;5.75;;;;;;;;;;4993495;28;20030;-67
2022/09/02 10:54:34;;;;;;;8.77;5.40;;;;;;;;;;4923758;28;20184;-67
2022/09/02 10:57:10;;;;;;;11.45;6.00;;;;;;;;;;4993278;28;20065;-67
2022/09/02 10:59:59;;;;;;;9.48;5.85;;;;;;;;;;4975727;28;20046;-68
2022/09/02 11:02:31;;;;;;;8.73;5.72;;;;;;;;;;4993123;28;20066;-66
2022/09/02 11:05:15;;;;;;;11.02;5.68;;;;;;;;;;4993205;28;20034;-68
2022/09/02 11:08:08;;;;;;;10.43;6.45;;;;;;;;;;4993207;28;20482;-67
2022/09/02 11:10:44;;;;;;;8.32;6.40;;;;;;;;;;4993414;28;20249;-66
2022/09/02 11:13:19;;;;;;;13.50;5.60;;;;;;;;;;4993081;28;20034;-65
2022/09/02 11:15:44;;;;;;;13.32;5.47;;;;;;;;;;4993595;28;20069;-67
2022/09/02 11:18:22;;;;;;;8.32;5.55;;;;;;;;;;4993514;28;20505;-66
2022/09/02 11:20:49;;;;;;;10.98;5.53;;;;;;;;;;4993916;28;20034;-65
2022/09/02 11:23:25;;;;;;;14.25;5.97;;;;;;;;;;4993258;28;20416;-65
2022/09/02 11:26:03;;;;;;;7.95;4.97;;;;;;;;;;4986632;28;20026;-70
2022/09/02 11:28:45;;;;;;;11.52;4.95;;;;;;;;;;4984781;28;20514;-67
2022/09/02 11:31:18;;;;;;;13.13;6.28;;;;;;;;;;4991927;28;20327;-67
2022/09/02 11:34:02;;;;;;;10.15;6.22;;;;;;;;;;4975765;28;20042;-65
2022/09/02 11:36:29;;;;;;;9.88;5.70;;;;;;;;;;4993672;28;20069;-68
2022/09/02 11:39:04;;;;;;;11.75;5.18;;;;;;;;;;5001283;28;20030;-67
2022/09/02 11:41:51;;;;;;;7.20;5.05;;;;;;;;;;5012760;28;20038;-66
2022/09/02 11:44:50;;;;;;;9.02;4.90;;;;;;;;;;5012179;28;20121;-66
2022/09/02 11:47:28;;;;;;;12.70;4.25;;;;;;;;;;5012410;28;20038;-65
2022/09/02 11:50:10;;;;;;;8.93;3.95;;;;;;;;;;5012200;28;20033;-67
2022/09/02 11:52:51;;;;;;;11.57;4.82;;;;;;;;;;5012496;28;20037;-67
2022/09/02 11:55:31;;;;;;;6.95;4.22;;;;;;;;;;5012320;28;20040;-66
2022/09/02 11:57:57;;;;;;;8.25;4.95;;;;;;;;;;4990602;28;20081;-67
2022/09/02 12:00:34;;;;;;;10.18;5.40;;;;;;;;;;4991847;28;20025;-69
2022/09/02 12:03:14;;;;;;;8.43;4.55;;;;;;;;;;4972867;28;20049;-68
2022/09/02 12:05:45;;;;;;;11.32;4.90;;;;;;;;;;4972900;28;20113;-68
2022/09/02 12:08:33;;;;;;;8.20;5.53;;;;;;;;;;4974055;28;20426;-69
2022/09/02 12:11:29;;;;;;;7.15;5.00;;;;;;;;;;4976479;28;20030;-69
2022/09/02 12:13:56;;;;;;;6.28;4.53;;;;;;;;;;4976311;28;20129;-68
2022/09/02 12:16:27;;;;;;;8.82;4.85;;;;;;;;;;4976333;28;20030;-69
2022/09/02 12:18:53;;;;;;;7.20;4.85;;;;;;;;;;4976732;28;20027;-75
2022/09/02 12:21:21;;;;;;;9.10;4.97;;;;;;;;;;4976732;28;20122;-71
2022/09/02 12:23:47;;;;;;;9.45;5.10;;;;;;;;;;4993896;28;20031;-76
2022/09/02 12:26:14;;;;;;;8.38;4.95;;;;;;;;;;4990029;28;20081;-72
2022/09/02 12:28:45;;;;;;;13.60;6.10;;;;;;;;;;4995732;28;20378;-70
2022/09/02 12:31:39;;;;;;;10.38;5.63;;;;;;;;;;4995379;28;20064;-77
2022/09/02 12:34:23;;;;;;;8.80;5.00;;;;;;;;;;4991860;28;20054;-73
2022/09/02 12:36:57;;;;;;;5.95;4.88;;;;;;;;;;4995462;28;20034;-71
2022/09/02 12:39:44;;;;;;;8.57;5.13;;;;;;;;;;4975144;28;20043;-72
2022/09/02 12:42:28;;;;;;;10.32;5.57;;;;;;;;;;4992197;28;20042;-72
2022/09/02 12:45:21;;;;;;;10.23;5.10;;;;;;;;;;4991314;28;20158;-72
2022/09/02 12:48:09;;;;;;;7.63;5.40;;;;;;;;;;4992487;28;20041;-71
2022/09/02 12:50:57;;;;;;;10.30;5.25;;;;;;;;;;4994654;28;20034;-73
2022/09/02 12:53:23;;;;;;;8.60;4.95;;;;;;;;;;4993427;28;20125;-75
2022/09/02 12:56:03;;;;;;;7.60;4.88;;;;;;;;;;4994480;28;20114;-73
2022/09/02 12:58:35;;;;;;;7.45;5.35;;;;;;;;;;4992825;28;20034;-71
2022/09/02 13:01:16;;;;;;;8.90;5.40;;;;;;;;;;4994508;28;20109;-71
2022/09/02 13:03:51;;;;;;;14.98;5.57;;;;;;;;;;4994443;28;20038;-70
2022/09/02 13:06:38;;;;;;;8.93;5.57;;;;;;;;;;4994490;28;20046;-76
2022/09/02 13:09:13;;;;;;;9.40;5.85;;;;;;;;;;4992375;28;20031;-71
2022/09/02 13:12:30;;;;;;;9.65;5.57;;;;;;;;;;4993371;28;20029;-75
2022/09/02 13:15:14;;;;;;;11.45;5.22;;;;;;;;;;4970264;28;20129;-71
2022/09/02 13:18:06;;;;;;;6.88;4.68;;;;;;;;;;4972933;28;20045;-70
2022/09/02 13:20:44;;;;;;;7.68;4.95;;;;;;;;;;4990172;28;20441;-71
2022/09/02 13:23:28;;;;;;;7.35;4.72;;;;;;;;;;4994139;28;20435;-70
2022/09/02 13:26:06;;;;;;;7.80;4.63;;;;;;;;;;4994429;28;20034;-68
2022/09/02 13:29:13;;;;;;;9.60;5.00;;;;;;;;;;4994711;28;20051;-69
2022/09/02 13:31:39;;;;;;;8.50;4.88;;;;;;;;;;4993631;28;20035;-68
2022/09/02 13:34:11;;;;;;;6.05;4.90;;;;;;;;;;4994481;28;20056;-74
2022/09/02 13:36:42;;;;;;;7.00;5.32;;;;;;;;;;4991897;28;20502;-74
2022/09/02 13:39:25;;;;;;;9.65;5.45;;;;;;;;;;4986254;28;20034;-70
2022/09/02 13:41:51;;;;;;;;;;;;;;;;;;4992124;28;20030;-69
2022/09/02 13:44:22;;;;;;;10.02;5.57;;;;;;;;;;4994258;28;20273;-69
2022/09/02 13:47:03;;;;;;;9.00;4.97;;;;;;;;;;4994140;28;20115;-70
2022/09/02 13:49:36;;;;;;;9.20;5.15;;;;;;;;;;4995198;28;20034;-69
2022/09/02 13:52:05;;;;;;;12.55;5.75;;;;;;;;;;4994336;28;20026;-70
2022/09/02 13:54:35;;;;;;;12.10;6.00;;;;;;;;;;4994574;28;20175;-68
2022/09/02 13:57:04;;;;;;;9.30;5.75;;;;;;;;;;4994210;28;20074;-66
2022/09/02 13:59:34;;;;;;;10.80;6.10;;;;;;;;;;4992873;28;20026;-72
2022/09/02 14:02:18;;;;;;;9.68;5.88;;;;;;;;;;4993565;28;20516;-67
2022/09/02 14:04:44;;;;;;;7.85;5.82;;;;;;;;;;4993978;28;20065;-74
2022/09/02 14:07:12;;;;;;;9.02;5.60;;;;;;;;;;4990409;28;20023;-74
2022/09/02 14:09:39;;;;;;;11.93;5.90;;;;;;;;;;4990280;28;20034;-74
2022/09/02 14:12:06;;;;;;;13.52;6.75;;;;;;;;;;5000830;28;20484;-71
2022/09/02 14:14:33;;;;;;;12.43;6.82;;;;;;;;;;4988413;28;20172;-70
2022/09/02 14:17:19;;;;;;;10.38;7.38;;;;;;;;;;5006511;28;20025;-74
2022/09/02 14:19:47;;;;;;;10.70;6.70;;;;;;;;;;4995027;28;20508;-71
2022/09/02 14:22:26;;;;;;;14.77;7.50;;;;;;;;;;4983970;28;20022;-67
2022/09/02 14:24:52;;;;;;;12.02;6.70;;;;;;;;;;4997325;28;20045;-69
2022/09/02 14:27:20;;;;;;;11.70;7.68;;;;;;;;;;5006836;28;20025;-70
2022/09/02 14:29:50;;;;;;;14.48;6.45;;;;;;;;;;5000902;28;20030;-69
2022/09/02 14:32:24;;;;;;;13.60;7.03;;;;;;;;;;5005947;28;20465;-73
2022/09/02 14:35:18;;;;;;;12.07;7.10;;;;;;;;;;5001540;28;20026;-69
2022/09/02 14:37:54;;;;;;;15.35;7.70;;;;;;;;;;4994379;28;20117;-68
2022/09/02 14:40:39;;;;;;;10.63;6.88;;;;;;;;;;5005368;28;20045;-70
2022/09/02 14:43:13;;;;;;;10.48;7.10;;;;;;;;;;4979513;28;20106;-74
2022/09/02 14:45:43;;;;;;;12.07;7.10;;;;;;;;;;5001773;28;20397;-70
2022/09/02 14:48:22;;;;;;;15.40;7.75;;;;;;;;;;5005621;28;20388;-74
2022/09/02 14:50:56;;;;;;;11.55;6.60;;;;;;;;;;4995013;28;20037;-70
2022/09/02 14:53:23;;;;;;;10.02;6.30;;;;;;;;;;4986646;28;20041;-68
2022/09/02 14:55:51;;;;;;;12.50;6.53;;;;;;;;;;4989146;28;20034;-70
2022/09/02 14:58:18;;;;;;;11.18;6.93;;;;;;;;;;4997406;28;20474;-70
2022/09/02 15:00:52;;;;;;;14.23;7.28;;;;;;;;;;5003327;28;20045;-72
2022/09/02 15:03:19;;;;;;;21.27;6.93;;;;;;;;;;5006128;28;20366;-73